sensor_id;sensor_type;location;lat;lon;timestamp;pressure;altitude;pressure_sealevel;temperature;humidity
70589;BME280;58152;49.202;18.744;2023-03-03T00:02:06;97534.47;;;3.95;47.75
70589;BME280;58152;49.202;18.744;2023-03-03T00:04:32;97526.69;;;3.93;47.71
70589;BME280;58152;49.202;18.744;2023-03-03T00:06:57;97527.56;;;3.92;47.81
70589;BME280;58152;49.202;18.744;2023-03-03T00:09:22;97531.94;;;3.90;47.52
70589;BME280;58152;49.202;18.744;2023-03-03T00:11:52;97518.25;;;3.80;47.84
70589;BME280;58152;49.202;18.744;2023-03-03T00:14:27;97529.50;;;3.81;48.30
70589;BME280;58152;49.202;18.744;2023-03-03T00:16:54;97532.13;;;3.78;48.33
70589;BME280;58152;49.202;18.744;2023-03-03T00:19:20;97527.78;;;3.78;48.04
70589;BME280;58152;49.202;18.744;2023-03-03T00:21:47;97541.63;;;3.79;48.19
70589;BME280;58152;49.202;18.744;2023-03-03T00:26:40;97534.97;;;3.61;48.20
70589;BME280;58152;49.202;18.744;2023-03-03T00:29:29;97528.09;;;3.57;48.95
70589;BME280;58152;49.202;18.744;2023-03-03T00:32:06;97528.25;;;3.48;48.69
70589;BME280;58152;49.202;18.744;2023-03-03T00:34:37;97515.34;;;3.45;48.87
70589;BME280;58152;49.202;18.744;2023-03-03T00:37:03;97517.94;;;3.45;49.26
70589;BME280;58152;49.202;18.744;2023-03-03T00:39:38;97538.75;;;3.40;49.25
70589;BME280;58152;49.202;18.744;2023-03-03T00:42:17;97532.78;;;3.34;49.88
70589;BME280;58152;49.202;18.744;2023-03-03T00:44:47;97523.34;;;3.28;49.09
70589;BME280;58152;49.202;18.744;2023-03-03T00:47:42;97534.56;;;3.30;50.97
70589;BME280;58152;49.202;18.744;2023-03-03T00:52:35;97519.19;;;3.16;50.05
70589;BME280;58152;49.202;18.744;2023-03-03T00:55:02;97522.63;;;3.18;49.87
70589;BME280;58152;49.202;18.744;2023-03-03T00:57:29;97518.34;;;3.14;49.67
70589;BME280;58152;49.202;18.744;2023-03-03T00:59:54;97515.78;;;3.11;49.32
70589;BME280;58152;49.202;18.744;2023-03-03T01:02:20;97524.41;;;3.13;49.51
70589;BME280;58152;49.202;18.744;2023-03-03T01:04:50;97521.03;;;3.08;49.41
70589;BME280;58152;49.202;18.744;2023-03-03T01:07:16;97515.91;;;3.03;49.30
70589;BME280;58152;49.202;18.744;2023-03-03T01:09:42;97510.78;;;2.97;49.54
70589;BME280;58152;49.202;18.744;2023-03-03T01:12:08;97515.97;;;2.97;49.54
70589;BME280;58152;49.202;18.744;2023-03-03T01:14:34;97505.66;;;2.94;49.45
70589;BME280;58152;49.202;18.744;2023-03-03T01:17:00;97503.16;;;2.87;49.46
70589;BME280;58152;49.202;18.744;2023-03-03T01:19:27;97510.03;;;2.89;49.73
70589;BME280;58152;49.202;18.744;2023-03-03T01:21:52;97498.06;;;2.79;49.85
70589;BME280;58152;49.202;18.744;2023-03-03T01:24:17;97504.13;;;2.79;49.82
70589;BME280;58152;49.202;18.744;2023-03-03T01:26:43;97498.09;;;2.76;49.95
70589;BME280;58152;49.202;18.744;2023-03-03T01:29:08;97493.81;;;2.75;50.06
70589;BME280;58152;49.202;18.744;2023-03-03T01:31:34;97493.81;;;2.75;50.12
70589;BME280;58152;49.202;18.744;2023-03-03T01:34:00;97497.28;;;2.72;49.73
70589;BME280;58152;49.202;18.744;2023-03-03T01:36:27;97485.31;;;2.62;50.15
70589;BME280;58152;49.202;18.744;2023-03-03T01:38:53;97501.75;;;2.57;50.32
70589;BME280;58152;49.202;18.744;2023-03-03T01:41:19;97501.78;;;2.55;50.39
70589;BME280;58152;49.202;18.744;2023-03-03T01:43:47;97503.56;;;2.50;50.26
70589;BME280;58152;49.202;18.744;2023-03-03T01:49:12;97488.09;;;2.45;50.68
70589;BME280;58152;49.202;18.744;2023-03-03T01:51:59;97491.56;;;2.43;50.79
70589;BME280;58152;49.202;18.744;2023-03-03T01:54:41;97480.44;;;2.35;51.52
70589;BME280;58152;49.202;18.744;2023-03-03T01:57:24;97485.63;;;2.35;51.06
70589;BME280;58152;49.202;18.744;2023-03-03T01:59:52;97486.50;;;2.32;50.72
70589;BME280;58152;49.202;18.744;2023-03-03T02:02:19;97488.28;;;2.27;50.87
70589;BME280;58152;49.202;18.744;2023-03-03T02:04:46;97486.59;;;2.23;50.92
70589;BME280;58152;49.202;18.744;2023-03-03T02:07:13;97481.44;;;2.20;50.64
70589;BME280;58152;49.202;18.744;2023-03-03T02:12:13;97479.78;;;2.16;50.86
70589;BME280;58152;49.202;18.744;2023-03-03T02:14:40;97482.34;;;2.17;50.79
70589;BME280;58152;49.202;18.744;2023-03-03T02:17:06;97471.22;;;2.09;51.11
70589;BME280;58152;49.202;18.744;2023-03-03T02:22:26;97471.28;;;2.03;51.32
70589;BME280;58152;49.202;18.744;2023-03-03T02:24:59;97465.28;;;1.99;51.76
70589;BME280;58152;49.202;18.744;2023-03-03T02:27:28;97471.38;;;1.94;52.10
70589;BME280;58152;49.202;18.744;2023-03-03T02:29:55;97477.44;;;1.90;52.30
70589;BME280;58152;49.202;18.744;2023-03-03T02:32:21;97468.91;;;1.77;52.40
70589;BME280;58152;49.202;18.744;2023-03-03T02:34:49;97475.00;;;1.74;52.81
70589;BME280;58152;49.202;18.744;2023-03-03T02:37:15;97475.06;;;1.65;52.94
70589;BME280;58152;49.202;18.744;2023-03-03T02:39:42;97470.75;;;1.63;53.05
70589;BME280;58152;49.202;18.744;2023-03-03T02:42:22;97472.47;;;1.65;53.50
70589;BME280;58152;49.202;18.744;2023-03-03T02:44:48;97461.31;;;1.59;52.23
70589;BME280;58152;49.202;18.744;2023-03-03T02:47:14;97458.69;;;1.60;53.05
70589;BME280;58152;49.202;18.744;2023-03-03T02:49:40;97447.53;;;1.55;53.21
70589;BME280;58152;49.202;18.744;2023-03-03T02:52:09;97464.75;;;1.61;53.28
70589;BME280;58152;49.202;18.744;2023-03-03T02:54:35;97462.19;;;1.58;53.23
70589;BME280;58152;49.202;18.744;2023-03-03T02:57:02;97456.16;;;1.57;53.05
70589;BME280;58152;49.202;18.744;2023-03-03T02:59:28;97457.91;;;1.57;52.88
70589;BME280;58152;49.202;18.744;2023-03-03T03:01:54;97459.63;;;1.56;52.63
70589;BME280;58152;49.202;18.744;2023-03-03T03:04:22;97463.94;;;1.51;52.71
70589;BME280;58152;49.202;18.744;2023-03-03T03:06:49;97460.56;;;1.44;52.55
70589;BME280;58152;49.202;18.744;2023-03-03T03:09:15;97460.53;;;1.46;52.05
70589;BME280;58152;49.202;18.744;2023-03-03T03:11:41;97458.03;;;1.38;52.66
70589;BME280;58152;49.202;18.744;2023-03-03T03:14:08;97458.03;;;1.37;52.67
70589;BME280;58152;49.202;18.744;2023-03-03T03:16:34;97455.50;;;1.34;52.66
70589;BME280;58152;49.202;18.744;2023-03-03T03:19:01;97459.81;;;1.33;52.70
70589;BME280;58152;49.202;18.744;2023-03-03T03:21:27;97452.03;;;1.32;52.66
70589;BME280;58152;49.202;18.744;2023-03-03T03:23:52;97452.09;;;1.25;52.62
70589;BME280;58152;49.202;18.744;2023-03-03T03:26:18;97456.41;;;1.25;52.62
70589;BME280;58152;49.202;18.744;2023-03-03T03:28:45;97450.41;;;1.18;52.96
70589;BME280;58152;49.202;18.744;2023-03-03T03:31:11;97448.72;;;1.10;52.99
70589;BME280;58152;49.202;18.744;2023-03-03T03:33:36;97443.59;;;1.08;52.32
70589;BME280;58152;49.202;18.744;2023-03-03T03:36:02;97451.31;;;1.10;52.45
70589;BME280;58152;49.202;18.744;2023-03-03T03:38:29;97452.19;;;1.12;53.14
70589;BME280;58152;49.202;18.744;2023-03-03T03:40:56;97435.84;;;1.07;53.63
70589;BME280;58152;49.202;18.744;2023-03-03T03:43:22;97428.16;;;0.97;54.15
70589;BME280;58152;49.202;18.744;2023-03-03T03:45:47;97437.66;;;0.97;54.33
70589;BME280;58152;49.202;18.744;2023-03-03T03:48:13;97424.72;;;0.97;54.03
70589;BME280;58152;49.202;18.744;2023-03-03T03:50:40;97429.03;;;0.96;53.62
70589;BME280;58152;49.202;18.744;2023-03-03T03:53:05;97420.38;;;0.99;54.53
70589;BME280;58152;49.202;18.744;2023-03-03T03:55:32;97421.25;;;0.98;54.45
70589;BME280;58152;49.202;18.744;2023-03-03T03:57:58;97410.97;;;0.92;53.72
70589;BME280;58152;49.202;18.744;2023-03-03T04:00:23;97420.41;;;0.94;53.92
70589;BME280;58152;49.202;18.744;2023-03-03T04:02:49;97426.47;;;0.96;53.87
70589;BME280;58152;49.202;18.744;2023-03-03T04:05:15;97413.53;;;0.93;53.71
70589;BME280;58152;49.202;18.744;2023-03-03T04:07:41;97421.28;;;0.93;53.85
70589;BME280;58152;49.202;18.744;2023-03-03T04:10:06;97423.88;;;0.90;54.16
70589;BME280;58152;49.202;18.744;2023-03-03T04:12:32;97423.09;;;0.84;54.09
70589;BME280;58152;49.202;18.744;2023-03-03T04:15:05;97433.41;;;0.85;54.81
70589;BME280;58152;49.202;18.744;2023-03-03T04:17:31;97439.44;;;0.84;54.19
70589;BME280;58152;49.202;18.744;2023-03-03T04:19:56;97431.69;;;0.83;54.47
70589;BME280;58152;49.202;18.744;2023-03-03T04:22:22;97438.59;;;0.77;54.54
70589;BME280;58152;49.202;18.744;2023-03-03T04:24:47;97439.50;;;0.73;54.86
70589;BME280;58152;49.202;18.744;2023-03-03T04:27:13;97438.63;;;0.71;54.90
70589;BME280;58152;49.202;18.744;2023-03-03T04:29:40;97437.78;;;0.71;54.97
70589;BME280;58152;49.202;18.744;2023-03-03T04:32:06;97429.22;;;0.64;54.36
70589;BME280;58152;49.202;18.744;2023-03-03T04:34:33;97433.50;;;0.65;54.79
70589;BME280;58152;49.202;18.744;2023-03-03T04:36:58;97430.03;;;0.68;54.79
70589;BME280;58152;49.202;18.744;2023-03-03T04:39:24;97423.16;;;0.64;55.04
70589;BME280;58152;49.202;18.744;2023-03-03T04:41:50;97419.75;;;0.60;55.56
70589;BME280;58152;49.202;18.744;2023-03-03T04:44:15;97424.97;;;0.49;55.34
70589;BME280;58152;49.202;18.744;2023-03-03T04:46:41;97427.53;;;0.49;55.85
70589;BME280;58152;49.202;18.744;2023-03-03T04:49:06;97419.81;;;0.51;55.53
70589;BME280;58152;49.202;18.744;2023-03-03T04:51:33;97418.97;;;0.46;55.30
70589;BME280;58152;49.202;18.744;2023-03-03T04:53:59;97419.84;;;0.43;55.26
70589;BME280;58152;49.202;18.744;2023-03-03T04:56:24;97417.25;;;0.46;55.58
70589;BME280;58152;49.202;18.744;2023-03-03T04:58:50;97423.25;;;0.45;55.39
70589;BME280;58152;49.202;18.744;2023-03-03T05:01:16;97413.84;;;0.38;55.97
70589;BME280;58152;49.202;18.744;2023-03-03T05:03:43;97420.75;;;0.33;55.90
70589;BME280;58152;49.202;18.744;2023-03-03T05:06:09;97415.59;;;0.33;55.60
70589;BME280;58152;49.202;18.744;2023-03-03T05:08:34;97417.28;;;0.31;56.05
70589;BME280;58152;49.202;18.744;2023-03-03T05:11:00;97422.44;;;0.31;56.07
70589;BME280;58152;49.202;18.744;2023-03-03T05:13:26;97418.19;;;0.29;55.07
70589;BME280;58152;49.202;18.744;2023-03-03T05:15:53;97430.22;;;0.30;55.15
70589;BME280;58152;49.202;18.744;2023-03-03T05:18:20;97425.06;;;0.25;55.18
70589;BME280;58152;49.202;18.744;2023-03-03T05:20:46;97419.06;;;0.21;55.61
70589;BME280;58152;49.202;18.744;2023-03-03T05:23:12;97422.50;;;0.20;55.18
70589;BME280;58152;49.202;18.744;2023-03-03T05:25:39;97428.53;;;0.16;55.36
70589;BME280;58152;49.202;18.744;2023-03-03T05:28:28;97423.38;;;0.12;55.95
70589;BME280;58152;49.202;18.744;2023-03-03T05:31:36;97421.69;;;0.11;55.22
70589;BME280;58152;49.202;18.744;2023-03-03T05:41:01;97427.72;;;0.05;56.03
70589;BME280;58152;49.202;18.744;2023-03-03T05:44:06;97435.44;;;0.07;56.50
70589;BME280;58152;49.202;18.744;2023-03-03T05:52:47;97432.91;;;-0.07;56.08
70589;BME280;58152;49.202;18.744;2023-03-03T05:55:12;97438.91;;;-0.04;56.64
70589;BME280;58152;49.202;18.744;2023-03-03T05:57:38;97444.06;;;-0.02;55.92
70589;BME280;58152;49.202;18.744;2023-03-03T06:00:04;97443.22;;;0.01;56.25
70589;BME280;58152;49.202;18.744;2023-03-03T06:02:30;97433.72;;;-0.01;56.07
70589;BME280;58152;49.202;18.744;2023-03-03T06:04:55;97450.09;;;0.02;56.79
70589;BME280;58152;49.202;18.744;2023-03-03T06:07:21;97446.66;;;-0.04;56.08
70589;BME280;58152;49.202;18.744;2023-03-03T06:09:46;97450.09;;;-0.03;56.94
70589;BME280;58152;49.202;18.744;2023-03-03T06:12:11;97448.38;;;-0.04;56.41
70589;BME280;58152;49.202;18.744;2023-03-03T06:14:37;97450.09;;;-0.03;56.80
70589;BME280;58152;49.202;18.744;2023-03-03T06:17:02;97452.69;;;-0.08;56.93
70589;BME280;58152;49.202;18.744;2023-03-03T06:19:30;97460.41;;;-0.08;56.74
70589;BME280;58152;49.202;18.744;2023-03-03T06:21:59;97466.44;;;-0.09;56.78
70589;BME280;58152;49.202;18.744;2023-03-03T06:24:24;97450.13;;;-0.17;57.06
70589;BME280;58152;49.202;18.744;2023-03-03T06:26:55;97464.72;;;-0.13;57.16
70589;BME280;58152;49.202;18.744;2023-03-03T06:29:20;97464.72;;;-0.08;57.26
70589;BME280;58152;49.202;18.744;2023-03-03T06:31:46;97469.03;;;-0.09;57.01
70589;BME280;58152;49.202;18.744;2023-03-03T06:34:11;97469.00;;;-0.07;56.90
70589;BME280;58152;49.202;18.744;2023-03-03T06:36:36;97464.69;;;-0.05;57.02
70589;BME280;58152;49.202;18.744;2023-03-03T06:39:05;97458.69;;;-0.03;57.51
70589;BME280;58152;49.202;18.744;2023-03-03T06:41:30;97447.50;;;0.03;57.73
70589;BME280;58152;49.202;18.744;2023-03-03T06:43:56;97460.38;;;0.15;57.81
70589;BME280;58152;49.202;18.744;2023-03-03T06:46:22;97468.09;;;0.18;57.82
70589;BME280;58152;49.202;18.744;2023-03-03T06:48:48;97465.53;;;0.18;57.11
70589;BME280;58152;49.202;18.744;2023-03-03T06:51:26;97474.09;;;0.22;57.33
70589;BME280;58152;49.202;18.744;2023-03-03T06:53:56;97474.97;;;0.19;57.77
70589;BME280;58152;49.202;18.744;2023-03-03T06:56:26;97462.94;;;0.20;57.57
70589;BME280;58152;49.202;18.744;2023-03-03T06:58:59;97457.78;;;0.18;57.67
70589;BME280;58152;49.202;18.744;2023-03-03T07:01:34;97468.94;;;0.23;57.91
70589;BME280;58152;49.202;18.744;2023-03-03T07:06:50;97470.69;;;0.23;57.96
70589;BME280;58152;49.202;18.744;2023-03-03T07:09:24;97475.81;;;0.24;58.28
70589;BME280;58152;49.202;18.744;2023-03-03T07:11:51;97481.00;;;0.24;57.86
70589;BME280;58152;49.202;18.744;2023-03-03T07:14:19;97480.97;;;0.26;58.18
70589;BME280;58152;49.202;18.744;2023-03-03T07:16:46;97481.84;;;0.28;58.09
70589;BME280;58152;49.202;18.744;2023-03-03T07:19:32;97484.44;;;0.28;58.57
70589;BME280;58152;49.202;18.744;2023-03-03T07:21:59;97483.56;;;0.29;60.55
70589;BME280;58152;49.202;18.744;2023-03-03T07:24:28;97485.25;;;0.30;58.78
70589;BME280;58152;49.202;18.744;2023-03-03T07:27:33;97488.69;;;0.38;59.37
70589;BME280;58152;49.202;18.744;2023-03-03T07:30:25;97494.69;;;0.40;59.43
70589;BME280;58152;49.202;18.744;2023-03-03T07:32:53;97502.47;;;0.42;58.16
70589;BME280;58152;49.202;18.744;2023-03-03T07:35:38;97504.16;;;0.43;58.73
70589;BME280;58152;49.202;18.744;2023-03-03T07:38:30;97505.88;;;0.44;58.68
70589;BME280;58152;49.202;18.744;2023-03-03T07:41:00;97509.34;;;0.41;58.27
70589;BME280;58152;49.202;18.744;2023-03-03T07:43:34;97512.75;;;0.48;58.30
70589;BME280;58152;49.202;18.744;2023-03-03T07:46:19;97510.16;;;0.49;58.67
70589;BME280;58152;49.202;18.744;2023-03-03T07:48:47;97521.34;;;0.50;61.10
70589;BME280;58152;49.202;18.744;2023-03-03T07:51:39;97517.06;;;0.50;59.94
70589;BME280;58152;49.202;18.744;2023-03-03T07:54:24;97511.91;;;0.50;59.35
70589;BME280;58152;49.202;18.744;2023-03-03T07:56:55;97511.00;;;0.53;58.27
70589;BME280;58152;49.202;18.744;2023-03-03T07:59:24;97512.75;;;0.56;58.34
70589;BME280;58152;49.202;18.744;2023-03-03T08:01:54;97508.41;;;0.59;58.28
70589;BME280;58152;49.202;18.744;2023-03-03T08:04:28;97511.88;;;0.60;58.92
70589;BME280;58152;49.202;18.744;2023-03-03T08:06:57;97512.72;;;0.60;58.69
70589;BME280;58152;49.202;18.744;2023-03-03T08:09:34;97524.75;;;0.64;58.64
70589;BME280;58152;49.202;18.744;2023-03-03T08:14:43;97516.09;;;0.68;59.28
70589;BME280;58152;49.202;18.744;2023-03-03T08:17:22;97516.09;;;0.73;59.37
70589;BME280;58152;49.202;18.744;2023-03-03T08:19:49;97511.78;;;0.75;58.93
70589;BME280;58152;49.202;18.744;2023-03-03T08:22:34;97514.38;;;0.78;59.80
70589;BME280;58152;49.202;18.744;2023-03-03T08:25:00;97514.34;;;0.83;58.77
70589;BME280;58152;49.202;18.744;2023-03-03T08:27:26;97517.75;;;0.89;59.28
70589;BME280;58152;49.202;18.744;2023-03-03T08:29:51;97514.31;;;0.92;59.25
70589;BME280;58152;49.202;18.744;2023-03-03T08:32:17;97515.13;;;0.95;58.34
70589;BME280;58152;49.202;18.744;2023-03-03T08:34:42;97514.25;;;0.99;59.13
70589;BME280;58152;49.202;18.744;2023-03-03T08:37:08;97501.34;;;1.02;59.23
70589;BME280;58152;49.202;18.744;2023-03-03T08:39:33;97493.56;;;1.06;59.10
70589;BME280;58152;49.202;18.744;2023-03-03T08:41:59;97502.13;;;1.12;58.65
70589;BME280;58152;49.202;18.744;2023-03-03T08:44:25;97495.22;;;1.14;58.58
70589;BME280;58152;49.202;18.744;2023-03-03T08:46:51;97496.91;;;1.21;59.05
70589;BME280;58152;49.202;18.744;2023-03-03T08:49:19;97484.00;;;1.24;59.05
70589;BME280;58152;49.202;18.744;2023-03-03T08:51:45;97480.50;;;1.29;59.10
70589;BME280;58152;49.202;18.744;2023-03-03T08:54:11;97481.31;;;1.35;59.06
70589;BME280;58152;49.202;18.744;2023-03-03T08:56:36;97478.69;;;1.40;58.70
70589;BME280;58152;49.202;18.744;2023-03-03T08:59:01;97469.19;;;1.42;58.55
70589;BME280;58152;49.202;18.744;2023-03-03T09:01:27;97466.59;;;1.48;58.92
70589;BME280;58152;49.202;18.744;2023-03-03T09:03:52;97463.94;;;1.54;58.57
70589;BME280;58152;49.202;18.744;2023-03-03T09:06:20;97445.78;;;1.59;58.51
70589;BME280;58152;49.202;18.744;2023-03-03T09:08:45;97435.41;;;1.66;58.92
70589;BME280;58152;49.202;18.744;2023-03-03T09:11:12;97441.38;;;1.71;58.48
70589;BME280;58152;49.202;18.744;2023-03-03T09:13:38;97446.50;;;1.77;58.57
70589;BME280;58152;49.202;18.744;2023-03-03T09:16:12;97439.53;;;1.83;58.55
70589;BME280;58152;49.202;18.744;2023-03-03T09:18:38;97447.25;;;1.90;58.73
70589;BME280;58152;49.202;18.744;2023-03-03T09:21:23;97443.72;;;1.96;58.71
70589;BME280;58152;49.202;18.744;2023-03-03T09:23:53;97433.34;;;2.00;58.23
70589;BME280;58152;49.202;18.744;2023-03-03T09:31:42;97449.50;;;2.22;58.11
70589;BME280;58152;49.202;18.744;2023-03-03T09:34:39;97437.31;;;2.32;58.56
70589;BME280;58152;49.202;18.744;2023-03-03T09:37:43;97447.38;;;2.57;58.65
70589;BME280;58152;49.202;18.744;2023-03-03T09:46:10;97432.81;;;3.13;56.43
70589;BME280;58152;49.202;18.744;2023-03-03T09:49:03;97440.16;;;3.42;57.96
70589;BME280;58152;49.202;18.744;2023-03-03T09:51:58;97424.25;;;3.63;57.04
70589;BME280;58152;49.202;18.744;2023-03-03T09:57:17;97438.22;;;4.05;nan
70589;BME280;58152;49.202;18.744;2023-03-03T10:11:53;97441.22;;;5.13;53.71
70589;BME280;58152;49.202;18.744;2023-03-03T10:17:08;97436.75;;;5.56;53.17
70589;BME280;58152;49.202;18.744;2023-03-03T10:22:44;97428.00;;;5.96;52.31
70589;BME280;58152;49.202;18.744;2023-03-03T10:25:36;97429.16;;;6.19;51.68
70589;BME280;58152;49.202;18.744;2023-03-03T10:30:52;97432.47;;;6.55;50.47
70589;BME280;58152;49.202;18.744;2023-03-03T10:36:36;97412.16;;;6.96;49.27
70589;BME280;58152;49.202;18.744;2023-03-03T10:48:09;97389.56;;;7.77;47.70
70589;BME280;58152;49.202;18.744;2023-03-03T11:01:20;97363.97;;;8.84;45.89
70589;BME280;58152;49.202;18.744;2023-03-03T11:09:15;97371.06;;;9.48;44.15
70589;BME280;58152;49.202;18.744;2023-03-03T11:12:46;97364.88;;;9.71;43.52
70589;BME280;58152;49.202;18.744;2023-03-03T11:34:37;97355.19;;;11.11;40.38
70589;BME280;58152;49.202;18.744;2023-03-03T11:39:46;97353.03;;;11.55;40.44
70589;BME280;58152;49.202;18.744;2023-03-03T11:43:21;97346.66;;;11.78;38.57
70589;BME280;58152;49.202;18.744;2023-03-03T11:45:49;97345.19;;;12.07;37.50
70589;BME280;58152;49.202;18.744;2023-03-03T11:50:50;97341.81;;;12.38;38.14
70589;BME280;58152;49.202;18.744;2023-03-03T11:54:00;97320.28;;;12.48;35.40
70589;BME280;58152;49.202;18.744;2023-03-03T12:02:01;97337.16;;;12.92;37.85
70589;BME280;58152;49.202;18.744;2023-03-03T12:04:35;97332.22;;;13.02;36.58
70589;BME280;58152;49.202;18.744;2023-03-03T12:13:13;97338.78;;;13.42;33.85
70589;BME280;58152;49.202;18.744;2023-03-03T12:15:48;97333.31;;;13.61;35.77
70589;BME280;58152;49.202;18.744;2023-03-03T12:26:43;97329.66;;;14.22;35.05
70589;BME280;58152;49.202;18.744;2023-03-03T12:29:13;97329.28;;;14.43;32.74
70589;BME280;58152;49.202;18.744;2023-03-03T12:34:37;97314.91;;;14.77;32.81
70589;BME280;58152;49.202;18.744;2023-03-03T12:42:32;97312.88;;;15.09;33.64
70589;BME280;58152;49.202;18.744;2023-03-03T12:48:20;97316.72;;;15.45;33.69
70589;BME280;58152;49.202;18.744;2023-03-03T12:56:40;97311.94;;;15.37;31.92
70589;BME280;58152;49.202;18.744;2023-03-03T12:59:35;97320.88;;;15.76;31.07
70589;BME280;58152;49.202;18.744;2023-03-03T13:07:33;97318.38;;;16.51;32.15
70589;BME280;58152;49.202;18.744;2023-03-03T13:13:05;97323.44;;;17.53;29.70
70589;BME280;58152;49.202;18.744;2023-03-03T13:15:39;97312.91;;;17.99;30.28
70589;BME280;58152;49.202;18.744;2023-03-03T13:31:56;97308.59;;;20.09;27.83
70589;BME280;58152;49.202;18.744;2023-03-03T13:34:40;97319.97;;;20.31;27.87
70589;BME280;58152;49.202;18.744;2023-03-03T13:37:19;97317.94;;;20.45;26.77
70589;BME280;58152;49.202;18.744;2023-03-03T13:40:00;97308.59;;;20.50;24.32
70589;BME280;58152;49.202;18.744;2023-03-03T13:44:56;97319.69;;;20.55;26.49
70589;BME280;58152;49.202;18.744;2023-03-03T13:50:47;97321.59;;;19.70;25.96
70589;BME280;58152;49.202;18.744;2023-03-03T13:53:51;97320.81;;;19.79;24.85
70589;BME280;58152;49.202;18.744;2023-03-03T13:56:45;97318.50;;;20.06;25.64
70589;BME280;58152;49.202;18.744;2023-03-03T14:05:55;97314.97;;;20.17;27.16
70589;BME280;58152;49.202;18.744;2023-03-03T14:08:59;97307.75;;;20.08;24.84
70589;BME280;58152;49.202;18.744;2023-03-03T14:15:13;97329.09;;;19.10;24.38
70589;BME280;58152;49.202;18.744;2023-03-03T14:18:04;97325.84;;;18.95;24.44
70589;BME280;58152;49.202;18.744;2023-03-03T14:20:53;97322.63;;;18.69;24.81
70589;BME280;58152;49.202;18.744;2023-03-03T14:26:09;97338.56;;;18.23;27.28
70589;BME280;58152;49.202;18.744;2023-03-03T14:28:41;97332.38;;;18.11;26.66
70589;BME280;58152;49.202;18.744;2023-03-03T14:31:23;97340.06;;;17.92;25.42
70589;BME280;58152;49.202;18.744;2023-03-03T14:33:58;97335.66;;;17.80;26.19
70589;BME280;58152;49.202;18.744;2023-03-03T14:36:31;97330.38;;;17.67;26.55
70589;BME280;58152;49.202;18.744;2023-03-03T14:39:01;97335.97;;;17.51;27.04
70589;BME280;58152;49.202;18.744;2023-03-03T14:41:39;97330.59;;;17.40;25.85
70589;BME280;58152;49.202;18.744;2023-03-03T14:44:25;97329.72;;;17.28;24.69
70589;BME280;58152;49.202;18.744;2023-03-03T14:49:37;97325.75;;;16.97;27.75
70589;BME280;58152;49.202;18.744;2023-03-03T14:54:43;97315.63;;;16.91;27.52
70589;BME280;58152;49.202;18.744;2023-03-03T15:00:14;97325.38;;;16.77;27.36
70589;BME280;58152;49.202;18.744;2023-03-03T15:07:45;97326.53;;;16.10;27.63
70589;BME280;58152;49.202;18.744;2023-03-03T15:10:12;97330.22;;;15.94;27.84
70589;BME280;58152;49.202;18.744;2023-03-03T15:12:40;97326.06;;;15.78;27.69
70589;BME280;58152;49.202;18.744;2023-03-03T15:17:40;97336.25;;;15.42;28.11
70589;BME280;58152;49.202;18.744;2023-03-03T15:28:17;97339.06;;;15.27;28.38
70589;BME280;58152;49.202;18.744;2023-03-03T15:33:30;97327.69;;;14.97;27.60
70589;BME280;58152;49.202;18.744;2023-03-03T15:36:07;97338.09;;;14.86;28.75
70589;BME280;58152;49.202;18.744;2023-03-03T15:38:58;97337.16;;;14.73;27.86
70589;BME280;58152;49.202;18.744;2023-03-03T15:41:37;97334.06;;;14.66;29.30
70589;BME280;58152;49.202;18.744;2023-03-03T15:47:01;97340.09;;;14.54;28.10
70589;BME280;58152;49.202;18.744;2023-03-03T15:49:54;97343.56;;;14.40;29.44
70589;BME280;58152;49.202;18.744;2023-03-03T15:55:19;97336.06;;;14.18;29.20
70589;BME280;58152;49.202;18.744;2023-03-03T16:03:11;97345.16;;;13.68;29.86
70589;BME280;58152;49.202;18.744;2023-03-03T16:08:18;97345.41;;;13.02;30.71
70589;BME280;58152;49.202;18.744;2023-03-03T16:11:06;97349.44;;;12.76;30.55
70589;BME280;58152;49.202;18.744;2023-03-03T16:21:37;97366.78;;;11.97;32.33
70589;BME280;58152;49.202;18.744;2023-03-03T16:24:22;97361.81;;;11.73;31.86
70589;BME280;58152;49.202;18.744;2023-03-03T16:27:05;97376.38;;;11.61;31.88
70589;BME280;58152;49.202;18.744;2023-03-03T16:37:49;97391.72;;;10.97;33.31
70589;BME280;58152;49.202;18.744;2023-03-03T16:40:22;97393.97;;;10.85;33.86
70589;BME280;58152;49.202;18.744;2023-03-03T16:43:22;97399.66;;;10.76;33.62
70589;BME280;58152;49.202;18.744;2023-03-03T16:45:49;97407.09;;;10.66;34.12
70589;BME280;58152;49.202;18.744;2023-03-03T16:56:20;97420.00;;;10.32;34.87
70589;BME280;58152;49.202;18.744;2023-03-03T17:01:49;97424.34;;;10.11;35.26
70589;BME280;58152;49.202;18.744;2023-03-03T17:17:43;97453.06;;;9.50;35.97
70589;BME280;58152;49.202;18.744;2023-03-03T17:26:02;97462.66;;;9.27;36.66
70589;BME280;58152;49.202;18.744;2023-03-03T17:42:04;97456.38;;;8.61;37.83
70589;BME280;58152;49.202;18.744;2023-03-03T17:44:44;97451.88;;;8.41;37.79
70589;BME280;58152;49.202;18.744;2023-03-03T17:47:23;97452.22;;;8.30;38.19
70589;BME280;58152;49.202;18.744;2023-03-03T17:52:49;97461.16;;;8.23;38.25
70589;BME280;58152;49.202;18.744;2023-03-03T17:55:38;97463.09;;;8.18;38.49
70589;BME280;58152;49.202;18.744;2023-03-03T18:03:52;97472.81;;;7.88;39.31
70589;BME280;58152;49.202;18.744;2023-03-03T18:06:57;97469.63;;;7.78;39.89
70589;BME280;58152;49.202;18.744;2023-03-03T18:09:45;97483.03;;;7.68;39.50
70589;BME280;58152;49.202;18.744;2023-03-03T18:21:16;97490.72;;;7.44;39.33
70589;BME280;58152;49.202;18.744;2023-03-03T18:23:47;97490.97;;;7.36;39.49
70589;BME280;58152;49.202;18.744;2023-03-03T18:26:35;97494.47;;;7.35;40.28
70589;BME280;58152;49.202;18.744;2023-03-03T18:34:40;97502.72;;;7.22;40.13
70589;BME280;58152;49.202;18.744;2023-03-03T18:37:09;97502.09;;;7.13;39.75
70589;BME280;58152;49.202;18.744;2023-03-03T18:39:44;97503.00;;;7.12;39.77
70589;BME280;58152;49.202;18.744;2023-03-03T18:44:52;97518.31;;;6.94;39.95
70589;BME280;58152;49.202;18.744;2023-03-03T18:47:18;97513.41;;;6.83;40.24